createdAt,value
2022-12-15T00:02:21.211Z,24.00
2022-12-15T00:05:06.981Z,23.73
2022-12-15T00:07:52.979Z,22.88
2022-12-15T00:10:41.064Z,23.83
2022-12-15T00:13:32.863Z,15.48
2022-12-15T00:16:23.673Z,18.38
2022-12-15T00:19:08.872Z,14.52
2022-12-15T00:21:58.826Z,19.17
2022-12-15T00:24:44.079Z,21.83
2022-12-15T00:27:29.807Z,20.83
2022-12-15T00:30:15.239Z,20.42
2022-12-15T00:33:00.820Z,12.93
2022-12-15T00:35:46.198Z,13.40
2022-12-15T00:38:33.237Z,15.27
2022-12-15T00:41:01.132Z,14.32
2022-12-15T00:43:29.544Z,17.67
2022-12-15T00:46:15.765Z,17.77
2022-12-15T00:48:52.060Z,10.25
2022-12-15T00:51:19.202Z,13.18
2022-12-15T00:54:05.133Z,7.53
2022-12-15T00:56:52.715Z,16.83
2022-12-15T00:59:38.202Z,14.68
2022-12-15T01:02:23.679Z,11.25
2022-12-15T01:05:09.069Z,4.45
2022-12-15T01:07:54.524Z,0.68
2022-12-15T01:10:40.132Z,2.50
2022-12-15T01:13:25.982Z,0.93
2022-12-15T01:16:11.404Z,0.30
2022-12-15T01:18:56.767Z,0.40
2022-12-15T01:21:25.214Z,10.57
2022-12-15T01:23:52.398Z,8.52
2022-12-15T01:26:19.327Z,7.55
2022-12-15T01:28:46.055Z,20.95
2022-12-15T01:31:12.983Z,23.80
2022-12-15T01:33:46.886Z,19.20
2022-12-15T01:36:17.093Z,4.03
2022-12-15T01:38:45.969Z,6.22
2022-12-15T01:41:14.835Z,10.52
2022-12-15T01:43:44.472Z,7.82
2022-12-15T01:46:16.776Z,12.13
2022-12-15T01:48:55.362Z,13.88
2022-12-15T01:51:32.746Z,20.80
2022-12-15T01:54:19.666Z,18.60
2022-12-15T01:56:52.355Z,21.83
2022-12-15T01:59:26.283Z,20.15
2022-12-15T02:01:53.043Z,14.68
2022-12-15T02:04:21.289Z,16.00
2022-12-15T02:06:48.046Z,17.40
2022-12-15T02:09:15.666Z,16.67
2022-12-15T02:12:02.589Z,10.65
2022-12-15T02:14:45.448Z,9.63
2022-12-15T02:17:21.351Z,22.05
2022-12-15T02:19:48.063Z,5.78
2022-12-15T02:22:56.012Z,2.65
2022-12-15T02:25:32.813Z,0.30
2022-12-15T02:28:07.027Z,0.30
2022-12-15T02:31:10.178Z,0.30
2022-12-15T02:33:48.064Z,0.30
2022-12-15T02:36:21.565Z,0.30
2022-12-15T02:38:48.340Z,0.40
2022-12-15T02:41:53.342Z,0.30
2022-12-15T02:44:34.012Z,0.30
2022-12-15T02:47:39.786Z,0.20
2022-12-15T02:50:30.895Z,1.42
2022-12-15T02:53:25.602Z,0.75
2022-12-15T02:56:04.111Z,0.22
2022-12-15T02:58:38.182Z,0.30
2022-12-15T03:01:19.274Z,0.30
2022-12-15T03:03:47.569Z,0.20
2022-12-15T03:06:15.676Z,3.10
2022-12-15T03:08:42.388Z,0.28
2022-12-15T03:11:08.976Z,1.05
2022-12-15T03:13:37.946Z,0.30
2022-12-15T03:16:04.841Z,0.30
2022-12-15T03:18:31.681Z,0.30
2022-12-15T03:20:58.334Z,0.30
2022-12-15T03:23:24.978Z,0.40
2022-12-15T03:25:57.721Z,0.40
2022-12-15T03:28:24.585Z,0.30
2022-12-15T03:30:51.276Z,0.30
2022-12-15T03:33:19.619Z,0.30
2022-12-15T03:35:46.618Z,0.30
2022-12-15T03:38:16.111Z,1.02
2022-12-15T03:40:42.949Z,0.52
2022-12-15T03:43:09.716Z,0.30
2022-12-15T03:45:36.478Z,0.30
2022-12-15T03:48:09.613Z,1.05
2022-12-15T03:50:36.470Z,0.30
2022-12-15T03:53:05.047Z,0.30
2022-12-15T03:55:32.009Z,0.30
2022-12-15T03:58:01.854Z,0.30
2022-12-15T04:00:28.798Z,0.30
2022-12-15T04:02:55.735Z,0.30
2022-12-15T04:05:30.652Z,0.30
2022-12-15T04:07:58.747Z,0.30
2022-12-15T04:10:33.364Z,0.30
2022-12-15T04:13:02.690Z,0.40
2022-12-15T04:15:29.421Z,0.30
2022-12-15T04:17:56.486Z,0.30
2022-12-15T04:20:24.103Z,0.60
2022-12-15T04:22:53.632Z,0.30
2022-12-15T04:25:42.748Z,0.30
2022-12-15T04:28:29.287Z,0.30
2022-12-15T04:31:20.941Z,0.30
2022-12-15T04:34:11.811Z,0.30
2022-12-15T04:36:58.851Z,0.30
2022-12-15T04:39:44.030Z,1.80
2022-12-15T04:42:29.341Z,2.60
2022-12-15T04:45:20.774Z,2.08
2022-12-15T04:48:06.857Z,3.73
2022-12-15T04:50:51.897Z,8.15
2022-12-15T04:53:37.707Z,5.80
2022-12-15T04:56:23.058Z,12.18
2022-12-15T04:59:08.380Z,0.40
2022-12-15T05:01:53.677Z,0.30
2022-12-15T05:04:39.248Z,0.60
2022-12-15T05:07:27.662Z,0.40
2022-12-15T05:10:15.162Z,0.30
2022-12-15T05:13:03.873Z,0.50
2022-12-15T05:15:51.369Z,9.85
2022-12-15T05:18:36.696Z,11.20
2022-12-15T05:21:21.993Z,9.53
2022-12-15T05:24:07.239Z,8.02
2022-12-15T05:26:53.347Z,9.70
2022-12-15T05:29:39.924Z,3.13
2022-12-15T05:32:08.038Z,0.40
2022-12-15T05:34:35.793Z,0.30
2022-12-15T05:37:05.061Z,0.30
2022-12-15T05:39:32.091Z,0.30
2022-12-15T05:41:59.029Z,6.23
2022-12-15T05:44:26.696Z,6.45
2022-12-15T05:46:53.825Z,0.50
2022-12-15T05:49:20.967Z,0.30
2022-12-15T05:51:48.113Z,0.57
2022-12-15T05:54:17.036Z,2.25
2022-12-15T05:56:43.932Z,2.85
2022-12-15T05:59:11.074Z,0.85
2022-12-15T06:01:40.439Z,0.50
2022-12-15T06:04:07.679Z,0.82
2022-12-15T06:06:34.707Z,9.63
2022-12-15T06:09:01.370Z,9.05
2022-12-15T06:11:34.300Z,10.80
2022-12-15T06:14:03.622Z,12.65
2022-12-15T06:16:30.736Z,4.03
2022-12-15T06:19:00.272Z,2.95
2022-12-15T06:21:32.326Z,5.93
2022-12-15T06:24:02.337Z,1.40
2022-12-15T06:26:31.929Z,0.30
2022-12-15T06:28:59.981Z,2.50
2022-12-15T06:31:26.776Z,1.00
2022-12-15T06:34:00.935Z,7.22
2022-12-15T06:36:29.043Z,2.30
2022-12-15T06:38:59.392Z,0.38
2022-12-15T06:41:26.417Z,0.30
2022-12-15T06:43:56.022Z,0.73
2022-12-15T06:46:23.940Z,1.63
2022-12-15T06:48:50.589Z,0.30
2022-12-15T06:51:17.823Z,4.20
2022-12-15T06:53:55.456Z,7.43
2022-12-15T06:56:33.972Z,6.88
2022-12-15T06:59:05.683Z,9.37
2022-12-15T07:01:33.067Z,7.83
2022-12-15T07:04:01.801Z,8.93
2022-12-15T07:06:31.962Z,8.37
2022-12-15T07:08:58.853Z,6.28
2022-12-15T07:11:25.491Z,0.40
2022-12-15T07:13:54.743Z,0.83
2022-12-15T07:16:23.091Z,3.50
2022-12-15T07:18:49.877Z,3.05
2022-12-15T07:21:17.027Z,0.40
2022-12-15T07:24:00.813Z,6.80
2022-12-15T07:26:27.929Z,2.10
2022-12-15T07:28:54.906Z,6.43
2022-12-15T07:31:22.312Z,6.63
2022-12-15T07:33:49.374Z,6.90
2022-12-15T07:36:17.896Z,6.93
2022-12-15T07:38:50.679Z,3.93
2022-12-15T07:41:18.297Z,4.13
2022-12-15T07:43:46.103Z,6.90
2022-12-15T07:46:13.003Z,6.97
2022-12-15T07:48:39.872Z,6.30
2022-12-15T07:51:12.307Z,5.43
2022-12-15T07:53:42.301Z,6.50
2022-12-15T07:56:12.045Z,4.90
2022-12-15T07:58:39.228Z,7.83
2022-12-15T08:01:07.931Z,8.13
2022-12-15T08:03:36.219Z,8.17
2022-12-15T08:06:07.863Z,8.50
2022-12-15T08:08:35.756Z,8.10
2022-12-15T08:11:10.339Z,8.07
2022-12-15T08:16:28.151Z,7.30
2022-12-15T08:18:57.293Z,7.13
2022-12-15T08:21:26.798Z,7.63
2022-12-15T08:23:53.650Z,9.77
2022-12-15T08:26:29.829Z,8.23
2022-12-15T08:29:11.905Z,7.63
2022-12-15T08:31:46.619Z,7.60
2022-12-15T08:34:13.409Z,7.10
2022-12-15T08:36:39.972Z,6.03
2022-12-15T08:39:06.661Z,6.83
2022-12-15T08:41:33.533Z,7.93
2022-12-15T08:44:01.024Z,7.10
2022-12-15T08:46:30.058Z,7.72
2022-12-15T08:48:57.676Z,7.50
2022-12-15T08:51:25.715Z,6.90
2022-12-15T08:53:52.822Z,7.67
2022-12-15T08:56:21.344Z,8.63
2022-12-15T08:58:49.173Z,9.03
2022-12-15T09:01:22.871Z,6.35
2022-12-15T09:03:52.210Z,6.32
2022-12-15T09:06:21.566Z,5.80
2022-12-15T09:08:48.469Z,8.67
2022-12-15T09:11:18.119Z,8.70
2022-12-15T09:13:44.840Z,9.40
2022-12-15T09:16:14.529Z,8.70
2022-12-15T09:18:46.913Z,7.67
2022-12-15T09:21:14.542Z,7.72
2022-12-15T09:23:41.769Z,9.13
2022-12-15T09:26:14.435Z,8.52
2022-12-15T09:28:44.031Z,6.28
2022-12-15T09:31:22.405Z,7.97
2022-12-15T09:33:53.516Z,8.02
2022-12-15T09:36:20.259Z,7.20
2022-12-15T09:38:47.344Z,7.70
2022-12-15T09:41:13.930Z,8.77
2022-12-15T09:43:52.270Z,6.68
2022-12-15T09:46:40.218Z,10.15
2022-12-15T09:49:33.146Z,7.43
2022-12-15T09:52:17.947Z,6.28
2022-12-15T09:54:45.320Z,4.50
2022-12-15T09:57:37.746Z,3.40
2022-12-15T10:00:07.898Z,2.72
2022-12-15T10:02:49.719Z,1.95
2022-12-15T10:05:57.606Z,0.50
2022-12-15T10:08:21.217Z,0.50
2022-12-15T10:10:53.796Z,0.40
2022-12-15T10:13:45.733Z,0.30
2022-12-15T10:16:39.271Z,0.40
2022-12-15T10:19:13.546Z,0.40
2022-12-15T10:21:40.861Z,0.30
2022-12-15T10:24:26.824Z,0.40
2022-12-15T10:27:24.725Z,0.30
2022-12-15T10:30:01.864Z,0.30
2022-12-15T10:32:58.007Z,0.30
2022-12-15T10:35:28.921Z,0.30
2022-12-15T10:38:00.410Z,0.30
2022-12-15T10:40:50.004Z,0.80
2022-12-15T10:43:36.814Z,1.05
2022-12-15T10:46:27.649Z,0.85
2022-12-15T10:48:59.650Z,1.42
2022-12-15T10:51:32.593Z,0.90
2022-12-15T10:54:01.903Z,1.02
2022-12-15T10:59:32.010Z,1.30
2022-12-15T11:02:25.703Z,0.80
2022-12-15T11:05:16.036Z,0.50
2022-12-15T11:07:52.660Z,0.60
2022-12-15T11:10:26.270Z,0.30
2022-12-15T11:13:00.645Z,0.52
2022-12-15T11:15:41.611Z,2.33
2022-12-15T11:18:20.813Z,0.88
2022-12-15T11:20:53.758Z,0.55
2022-12-15T11:23:33.952Z,0.30
2022-12-15T11:26:07.194Z,0.30
2022-12-15T11:28:47.288Z,0.60
2022-12-15T11:31:18.246Z,0.30
2022-12-15T11:33:44.896Z,0.30
2022-12-15T11:36:31.143Z,0.50
2022-12-15T11:39:05.068Z,0.40
2022-12-15T11:41:39.668Z,0.30
2022-12-15T11:44:24.669Z,0.30
2022-12-15T11:47:03.455Z,0.30
2022-12-15T11:49:44.955Z,0.22
2022-12-15T11:52:30.982Z,0.20
2022-12-15T11:55:16.748Z,0.22
2022-12-15T11:58:01.322Z,0.40
2022-12-15T12:00:31.356Z,0.30
2022-12-15T12:03:01.024Z,0.40
2022-12-15T12:05:37.492Z,0.30
2022-12-15T12:08:40.959Z,0.20
2022-12-15T12:11:29.420Z,0.30
2022-12-15T12:14:38.259Z,0.22
2022-12-15T12:17:41.612Z,0.40
2022-12-15T12:20:19.410Z,0.30
2022-12-15T12:22:55.338Z,0.30
2022-12-15T12:25:23.452Z,0.20
2022-12-15T12:27:55.616Z,0.30
2022-12-15T12:30:26.117Z,0.28
2022-12-15T12:33:09.954Z,0.20
2022-12-15T12:35:45.158Z,0.30
2022-12-15T12:38:13.187Z,0.30
2022-12-15T12:41:02.999Z,0.20
2022-12-15T12:43:34.670Z,0.30
2022-12-15T12:46:16.942Z,0.30
2022-12-15T12:48:52.425Z,0.63
2022-12-15T12:51:34.108Z,6.88
2022-12-15T12:54:04.239Z,9.35
2022-12-15T12:56:36.295Z,8.52
2022-12-15T12:59:09.699Z,8.00
2022-12-15T13:01:40.754Z,7.63
2022-12-15T13:04:30.595Z,8.50
2022-12-15T13:07:26.090Z,10.38
2022-12-15T13:10:08.431Z,9.88
2022-12-15T13:12:55.066Z,10.43
2022-12-15T13:15:28.042Z,11.05
2022-12-15T13:17:58.481Z,10.43
2022-12-15T13:20:31.203Z,9.02
2022-12-15T13:23:24.010Z,10.35
2022-12-15T13:25:56.718Z,9.27
2022-12-15T13:28:27.377Z,8.73
2022-12-15T13:31:22.010Z,14.15
2022-12-15T13:33:51.703Z,13.57
2022-12-15T13:36:37.168Z,12.32
2022-12-15T13:39:13.205Z,8.07
2022-12-15T13:42:31.557Z,9.48
2022-12-15T13:44:41.576Z,5.53
2022-12-15T13:47:26.545Z,4.85
2022-12-15T13:50:03.005Z,7.18
2022-12-15T13:53:17.789Z,8.38
2022-12-15T13:55:40.669Z,8.95
2022-12-15T13:58:16.026Z,10.15
2022-12-15T14:00:56.460Z,5.35
2022-12-15T14:03:24.085Z,9.57
2022-12-15T14:05:55.933Z,11.68
2022-12-15T14:08:24.446Z,12.10
2022-12-15T14:10:54.273Z,10.75
2022-12-15T14:13:30.163Z,8.60
2022-12-15T14:15:59.430Z,8.55
2022-12-15T14:18:37.655Z,13.13
2022-12-15T14:21:18.693Z,14.05
2022-12-15T14:26:42.088Z,9.15
2022-12-15T14:29:10.248Z,12.15
2022-12-15T14:31:38.240Z,12.73
2022-12-15T14:34:39.125Z,8.68
2022-12-15T14:37:11.689Z,9.57
2022-12-15T14:39:43.856Z,5.28
2022-12-15T14:42:31.598Z,7.22
2022-12-15T14:44:58.680Z,8.90
2022-12-15T14:47:27.125Z,8.52
2022-12-15T14:49:55.059Z,9.48
2022-12-15T14:52:30.062Z,8.25
2022-12-15T14:54:59.402Z,7.25
2022-12-15T14:57:48.491Z,8.73
2022-12-15T15:00:37.553Z,8.65
2022-12-15T15:03:04.592Z,3.25
2022-12-15T15:03:19.915Z,8.35
2022-12-15T15:06:01.808Z,9.25
2022-12-15T15:08:31.824Z,8.80
2022-12-15T15:11:04.831Z,8.13
2022-12-15T15:13:43.323Z,8.65
2022-12-15T15:16:15.949Z,8.50
2022-12-15T15:18:43.620Z,9.32
2022-12-15T15:21:19.029Z,9.90
2022-12-15T15:24:03.413Z,9.82
2022-12-15T15:26:31.088Z,7.55
2022-12-15T15:28:58.610Z,8.50
2022-12-15T15:31:25.468Z,7.65
2022-12-15T15:33:52.999Z,10.13
2022-12-15T15:36:20.078Z,11.48
2022-12-15T15:38:46.985Z,11.13
2022-12-15T15:41:21.650Z,11.00
2022-12-15T15:43:48.453Z,12.27
2022-12-15T15:46:18.799Z,11.93
2022-12-15T15:49:01.135Z,13.70
2022-12-15T15:51:29.432Z,15.32
2022-12-15T15:54:09.099Z,13.95
2022-12-15T15:56:35.910Z,13.18
2022-12-15T15:59:11.016Z,13.52
2022-12-15T16:01:37.851Z,15.07
2022-12-15T16:04:06.604Z,14.40
2022-12-15T16:06:33.559Z,14.75
2022-12-15T16:09:00.276Z,15.07
2022-12-15T16:11:29.235Z,14.80
2022-12-15T16:13:56.977Z,14.98
2022-12-15T16:16:25.719Z,14.75
2022-12-15T16:18:55.655Z,13.57
2022-12-15T16:21:25.969Z,14.93
2022-12-15T16:23:52.974Z,13.73
2022-12-15T16:26:33.183Z,13.85
2022-12-15T16:28:59.929Z,15.95
2022-12-15T16:31:41.220Z,14.88
2022-12-15T16:34:08.608Z,13.93
2022-12-15T16:36:35.417Z,13.15
2022-12-15T16:39:02.397Z,13.23
2022-12-15T16:41:29.151Z,11.55
2022-12-15T16:43:55.942Z,10.10
2022-12-15T16:46:22.959Z,9.85
2022-12-15T16:48:52.702Z,10.25
2022-12-15T16:51:32.908Z,9.93
2022-12-15T16:53:59.698Z,6.85
2022-12-15T16:56:26.694Z,9.00
2022-12-15T16:59:08.858Z,8.20
2022-12-15T17:01:40.610Z,7.88
2022-12-15T17:04:08.254Z,7.72
2022-12-15T17:06:35.096Z,7.35
2022-12-15T17:09:02.200Z,7.05
2022-12-15T17:11:29.823Z,6.88
2022-12-15T17:13:58.497Z,7.78
2022-12-15T17:16:26.348Z,13.40
2022-12-15T17:18:53.419Z,8.85
2022-12-15T17:21:32.194Z,10.70
2022-12-15T17:24:08.200Z,9.15
2022-12-15T17:26:37.035Z,9.38
2022-12-15T17:29:15.988Z,7.03
2022-12-15T17:31:42.851Z,7.30
2022-12-15T17:34:35.945Z,7.15
2022-12-15T17:37:06.846Z,7.20
2022-12-15T17:39:34.761Z,7.88
2022-12-15T17:42:03.545Z,10.55
2022-12-15T17:44:34.473Z,11.73
2022-12-15T17:47:04.098Z,6.53
2022-12-15T17:49:36.524Z,6.00
2022-12-15T17:52:27.116Z,10.30
2022-12-15T17:54:54.452Z,10.10
2022-12-15T17:57:21.224Z,9.80
2022-12-15T17:59:48.423Z,9.45
2022-12-15T18:02:15.712Z,8.60
2022-12-15T18:04:46.292Z,6.68
2022-12-15T18:07:19.042Z,6.93
2022-12-15T18:09:45.991Z,6.55
2022-12-15T18:12:25.010Z,5.82
2022-12-15T18:14:52.437Z,4.60
2022-12-15T18:17:21.609Z,6.65
2022-12-15T18:19:48.685Z,9.43
2022-12-15T18:22:23.995Z,10.68
2022-12-15T18:24:52.512Z,7.57
2022-12-15T18:27:25.364Z,7.75
2022-12-15T18:29:52.954Z,11.82
2022-12-15T18:32:21.872Z,9.00
2022-12-15T18:34:48.639Z,9.75
2022-12-15T18:37:23.283Z,9.07
2022-12-15T18:39:50.931Z,10.85
2022-12-15T18:42:20.876Z,9.48
2022-12-15T18:44:50.345Z,7.15
2022-12-15T18:47:19.814Z,9.07
2022-12-15T18:49:46.604Z,9.15
2022-12-15T18:52:23.738Z,8.15
2022-12-15T18:54:51.911Z,8.07
2022-12-15T18:57:38.197Z,8.02
2022-12-15T19:00:18.379Z,9.18
2022-12-15T19:02:48.203Z,8.55
2022-12-15T19:05:32.576Z,8.77
2022-12-15T19:08:13.781Z,7.65
2022-12-15T19:10:46.590Z,7.28
2022-12-15T19:13:16.765Z,8.00
2022-12-15T19:15:44.183Z,7.03
2022-12-15T19:18:36.398Z,6.30
2022-12-15T19:21:42.131Z,8.38
2022-12-15T19:24:15.029Z,8.05
2022-12-15T19:26:41.970Z,7.47
2022-12-15T19:29:20.100Z,7.70
2022-12-15T19:31:47.209Z,8.02
2022-12-15T19:34:17.225Z,8.55
2022-12-15T19:36:43.917Z,11.07
2022-12-15T19:39:19.629Z,9.57
2022-12-15T19:41:46.449Z,11.48
2022-12-15T19:44:14.925Z,11.13
2022-12-15T19:46:42.881Z,11.57
2022-12-15T19:49:10.339Z,13.93
2022-12-15T19:51:37.428Z,12.52
2022-12-15T19:54:04.422Z,10.63
2022-12-15T19:56:31.190Z,11.32
2022-12-15T19:58:57.928Z,10.98
2022-12-15T20:01:24.597Z,11.70
2022-12-15T20:03:52.725Z,12.07
2022-12-15T20:06:27.041Z,11.25
2022-12-15T20:08:56.288Z,10.52
2022-12-15T20:11:25.354Z,12.18
2022-12-15T20:13:52.589Z,12.27
2022-12-15T20:16:20.249Z,14.43
2022-12-15T20:18:48.583Z,13.38
2022-12-15T20:21:21.931Z,11.40
2022-12-15T20:23:56.917Z,8.40
2022-12-15T20:26:24.989Z,9.25
2022-12-15T20:28:53.291Z,9.02
2022-12-15T20:31:22.328Z,11.75
2022-12-15T20:33:49.570Z,11.50
2022-12-15T20:36:19.455Z,9.43
2022-12-15T20:38:47.195Z,9.38
2022-12-15T20:41:21.663Z,7.47
2022-12-15T20:43:48.932Z,7.85
2022-12-15T20:46:38.529Z,8.93
2022-12-15T20:49:06.517Z,8.13
2022-12-15T20:51:33.665Z,7.20
2022-12-15T20:54:02.076Z,8.95
2022-12-15T20:56:29.042Z,7.75
2022-12-15T20:58:57.644Z,6.28
2022-12-15T21:01:27.140Z,5.65
2022-12-15T21:03:56.686Z,5.28
2022-12-15T21:06:25.145Z,8.48
2022-12-15T21:08:55.729Z,8.95
2022-12-15T21:11:25.334Z,9.63
2022-12-15T21:13:55.591Z,10.40
2022-12-15T21:16:27.247Z,10.93
2022-12-15T21:19:19.192Z,10.50
2022-12-15T21:21:45.101Z,10.10
2022-12-15T21:24:32.004Z,10.85
2022-12-15T21:26:58.954Z,9.98
2022-12-15T21:29:28.089Z,10.93
2022-12-15T21:31:55.033Z,13.70
2022-12-15T21:34:22.003Z,11.88
2022-12-15T21:36:52.065Z,7.93
2022-12-15T21:39:44.828Z,8.30
2022-12-15T21:42:16.240Z,7.20
2022-12-15T21:44:43.295Z,8.07
2022-12-15T21:47:46.722Z,8.55
2022-12-15T21:50:14.299Z,6.22
2022-12-15T21:52:41.076Z,7.47
2022-12-15T21:55:21.803Z,9.25
2022-12-15T21:57:48.449Z,9.43
2022-12-15T22:00:17.692Z,9.27
2022-12-15T22:02:46.259Z,13.85
2022-12-15T22:05:21.913Z,12.27
2022-12-15T22:07:49.611Z,7.90
2022-12-15T22:10:17.794Z,8.23
2022-12-15T22:12:54.634Z,9.27
2022-12-15T22:15:26.338Z,9.55
2022-12-15T22:17:53.425Z,3.15
2022-12-15T22:20:24.711Z,4.95
2022-12-15T22:22:51.454Z,5.57
2022-12-15T22:25:20.835Z,7.65
2022-12-15T22:27:48.234Z,6.82
2022-12-15T22:30:18.978Z,7.85
2022-12-15T22:32:46.450Z,5.05
2022-12-15T22:35:20.991Z,4.60
2022-12-15T22:37:49.685Z,4.82
2022-12-15T22:40:17.618Z,5.45
2022-12-15T22:42:51.243Z,7.20
2022-12-15T22:45:20.723Z,5.95
2022-12-15T22:47:49.499Z,5.28
2022-12-15T22:50:23.499Z,9.38
2022-12-15T22:52:50.493Z,11.02
2022-12-15T22:55:20.377Z,9.48
2022-12-15T22:57:58.692Z,8.07
2022-12-15T23:00:26.216Z,7.35
2022-12-15T23:02:53.068Z,5.47
2022-12-15T23:05:20.454Z,7.55
2022-12-15T23:07:47.436Z,7.68
2022-12-15T23:10:35.025Z,7.55
2022-12-15T23:13:01.723Z,9.23
2022-12-15T23:15:47.250Z,12.43
2022-12-15T23:18:14.153Z,8.00
2022-12-15T23:20:40.917Z,10.70
2022-12-15T23:23:08.299Z,8.40
2022-12-15T23:25:34.857Z,9.85
2022-12-15T23:28:01.542Z,9.27
2022-12-15T23:30:28.310Z,9.57
2022-12-15T23:32:55.338Z,11.10
2022-12-15T23:35:22.296Z,11.27
2022-12-15T23:37:49.177Z,10.70
2022-12-15T23:40:21.384Z,8.30
2022-12-15T23:42:51.220Z,9.45
2022-12-15T23:45:20.819Z,6.80
2022-12-15T23:47:47.564Z,5.90
2022-12-15T23:50:14.477Z,5.00
2022-12-15T23:52:41.693Z,4.25
2022-12-15T23:55:11.382Z,6.43
2022-12-15T23:57:38.425Z,7.65
